Date,TemperatureHighF,TemperatureAvgF,TemperatureLowF,DewpointHighF,DewpointAvgF,DewpointLowF,HumidityHigh,HumidityAvg,HumidityLow,PressureMaxIn,PressureMinIn,WindSpeedMaxMPH,WindSpeedAvgMPH,GustSpeedMaxMPH,PrecipitationSumIn
2013-1-1,33,15,14,19,-16,-100,99,59,41,0.00,40.00,95,-697,0,0.00
2013-1-2,49,22,10,22,2,-100,99,61,26,0.00,40.00,42,-874,0,0.00
2013-1-3,50,24,-1,32,2,-100,99,72,44,0.00,40.00,2,-925,0,0.00
2013-1-4,48,24,17,46,5,-100,99,77,65,0.00,40.00,3,-919,0,0.00
2013-1-5,52,24,19,40,-3,-100,99,69,49,0.00,40.00,28,-724,0,0.00
2013-1-6,38,28,-3,36,-1,-100,99,68,57,0.00,40.00,107,-939,0,0.00
2013-1-7,46,29,19,45,14,-100,99,82,58,0.00,40.00,1,-943,0,0.00
2013-1-8,48,29,19,43,10,-100,99,80,76,0.00,40.00,2,-915,0,0.00
2013-1-9,49,20,22,36,-24,-100,99,51,47,0.00,40.00,135,-433,0,0.00
2013-1-10,27,10,18,23,-50,-100,99,37,19,0.00,40.00,209,-255,0,0.00
2013-1-11,27,10,-12,19,-48,-100,99,40,55,0.00,40.00,82,-320,0,0.00
2013-1-12,34,12,2,16,-14,-100,99,61,26,0.00,40.00,2,-889,0,0.00
2013-1-13,44,11,-5,36,-34,-100,92,41,27,0.00,40.00,16,-761,0,0.00
2013-1-14,47,16,-42,38,-18,-100,92,52,31,0.00,40.00,17,-657,0,0.00
2013-1-15,51,22,21,27,-32,-100,99,41,34,0.00,40.00,20,-515,0,0.00
2013-1-16,51,25,21,23,-10,-100,89,47,27,0.00,40.00,3,-644,0,0.00
2013-1-17,49,22,15,26,-12,-100,91,52,3,0.00,40.00,40,-784,0,0.00
2013-1-18,46,24,15,42,-2,-100,94,59,42,0.00,40.00,43,-905,0,0.00
2013-1-19,47,24,14,34,1,-100,99,63,12,0.00,40.00,21,-844,0,0.00
2013-1-20,48,23,7,34,-14,-100,92,47,32,0.00,40.00,2,-824,0,0.00
2013-1-21,51,24,-12,51,-10,-100,93,53,42,0.00,40.00,31,-793,0,0.00
2013-1-22,48,25,20,38,-12,-100,99,61,62,0.00,40.00,19,-779,0,0.00
2013-1-23,51,26,32,34,-17,-100,99,39,30,0.00,40.00,103,-598,0,0.00
2013-1-24,41,36,33,41,34,-100,99,98,98,0.00,40.00,0,-984,0,0.00
2013-1-25,46,36,33,46,27,-100,99,92,96,0.00,40.00,7,-940,0,0.00
2013-1-26,43,21,30,42,-21,-100,99,57,55,0.00,40.00,196,-438,0,0.00
2013-1-27,37,19,20,35,-12,-100,99,61,51,0.00,40.00,12,-625,0,0.00
2013-1-28,35,21,11,30,5,-100,99,75,59,0.00,40.00,3,-822,0,0.00
2013-1-29,49,28,30,36,-16,-100,96,52,61,0.00,40.00,57,-463,0,0.00
2013-1-30,53,32,26,47,-4,-100,99,60,42,0.00,40.00,4,-795,0,0.00
2013-1-31,51,26,16,43,-24,-100,99,56,64,0.00,40.00,3,-746,0,0.00
2013-2-1,49,24,21,39,-6,-100,99,61,53,0.00,40.00,3,-780,0,0.00
2013-2-2,45,31,24,44,21,-100,99,87,71,0.00,40.00,2,-922,0,0.00
2013-2-3,55,29,-6,39,2,-100,99,66,37,0.00,40.00,3,-840,0,0.00
2013-2-4,48,30,24,42,3,-100,99,71,63,0.00,40.00,3,-825,0,0.00
2013-2-5,48,22,28,36,-23,-100,99,42,38,0.00,40.00,129,-368,0,0.00
2013-2-6,130,24,16,42,-23,-100,86,42,42,0.00,40.00,5,-759,0,0.00
2013-2-7,47,14,5,47,-53,-100,99,27,1,0.00,40.00,221,-246,0,0.00
2013-2-8,41,21,15,34,-4,-100,99,67,53,0.00,40.00,26,-912,0,0.00
2013-2-9,38,18,14,25,-14,-100,99,59,45,0.00,40.00,3,-791,0,0.00
2013-2-10,40,23,19,33,-11,-100,99,54,45,0.00,40.00,3,-773,0,0.00
2013-2-11,42,22,16,37,-29,-100,75,34,16,0.00,40.00,3,-714,0,0.00
2013-2-12,48,27,19,35,-14,-100,97,50,33,0.00,40.00,171,-794,0,0.00
2013-2-13,51,30,21,35,1,-100,99,61,41,0.00,40.00,116,-822,0,0.00
2013-2-14,49,24,26,34,-28,-100,99,44,53,0.00,40.00,4,-584,0,0.00
2013-2-15,52,29,-6,39,-3,-100,99,63,39,0.00,40.00,3,-756,0,0.00
2013-2-16,46,31,23,45,20,-100,99,80,60,0.00,40.00,2,-873,0,0.00
2013-2-17,53,33,25,44,4,-100,95,52,27,0.00,40.00,3,-771,0,0.00
2013-2-18,47,22,13,47,-35,-100,99,41,24,0.00,40.00,116,-562,0,0.00
2013-2-19,35,12,21,32,-45,-100,99,45,52,0.00,40.00,214,-251,0,0.00
2013-2-20,38,24,20,30,-11,-100,99,56,38,0.00,40.00,26,-792,0,0.00
2013-2-21,39,20,21,39,-16,-100,99,50,39,0.00,40.00,117,-613,0,0.00
2013-2-22,130,23,6,33,-16,-100,99,54,27,0.00,40.00,115,-647,0,0.00
2013-2-23,39,18,22,34,-41,-100,94,32,42,0.00,40.00,66,-356,0,0.00
2013-2-24,43,24,17,34,-17,-100,76,40,23,0.00,40.00,170,-603,0,0.00
2013-2-25,48,23,20,37,-22,-100,99,48,10,0.00,40.00,16,-599,0,0.00
2013-2-26,47,27,21,30,-5,-100,99,48,18,0.00,40.00,2,-842,0,0.00
2013-2-27,52,26,-9,34,-8,-100,85,50,34,0.00,40.00,3,-821,0,0.00
2013-2-28,53,29,-37,53,-3,-100,99,61,53,0.00,40.00,4,-793,0,0.00
2013-3-1,55,31,27,46,-13,-100,99,56,48,0.00,40.00,3,-823,0,0.00
2013-3-2,56,26,-2,43,-17,-100,99,53,50,0.00,40.00,80,-658,0,0.00
2013-3-3,46,31,32,46,5,-100,99,75,77,0.00,40.00,246,-726,0,0.00
2013-3-4,49,29,-7,43,8,-100,99,78,64,0.00,40.00,75,-821,0,0.00
2013-3-5,48,19,29,46,-44,-100,99,36,11,0.00,40.00,233,-339,0,0.00
2013-3-6,33,15,20,33,-34,-100,99,50,49,0.00,40.00,204,-282,0,0.00
2013-3-7,35,26,21,33,10,-100,99,84,49,0.00,40.00,1,-911,0,0.00
2013-3-8,43,28,-41,33,15,-100,99,81,55,0.00,40.00,4,-889,0,0.00
2013-3-9,50,32,-4,30,6,-100,99,61,25,0.00,40.00,2,-887,0,0.00
2013-3-10,50,31,18,48,-13,-100,78,43,36,0.00,40.00,110,-794,0,0.00
2013-3-11,56,32,-7,42,1,-100,98,55,29,0.00,40.00,38,-798,0,0.00
2013-3-12,55,32,9,46,-2,-100,99,61,20,0.00,40.00,3,-857,0,0.00
2013-3-13,65,33,29,52,0,-100,99,68,64,0.00,40.00,15,-726,0,0.00
2013-3-14,62,34,34,44,6,-100,99,61,37,0.00,40.00,7,-755,0,0.00
2013-3-15,60,33,29,49,8,-100,99,69,38,0.00,40.00,5,-788,0,0.00
2013-3-16,56,28,26,40,-12,-100,99,54,30,0.00,40.00,181,-593,0,0.00
2013-3-17,56,30,26,40,-19,-100,99,42,22,0.00,40.00,185,-514,0,0.00
2013-3-18,56,29,25,37,-13,-100,80,43,25,0.00,40.00,106,-570,0,0.00
2013-3-19,51,23,38,41,-32,-100,99,39,48,0.00,40.00,165,-265,0,0.00
2013-3-20,46,15,35,45,-55,-100,99,32,37,0.00,40.00,243,-56,0,0.00
2013-3-21,52,26,24,40,-20,-100,99,47,39,0.00,40.00,23,-546,0,0.00
2013-3-22,41,26,21,31,15,-100,99,81,32,0.00,40.00,2,-922,0,0.00
2013-3-23,53,25,21,30,-50,-100,84,23,36,0.00,40.00,4,-786,0,0.00
2013-3-24,61,31,-27,31,-42,-100,99,43,84,0.00,40.00,0,-922,0,0.00
2013-3-25,55,22,41,39,-39,-100,78,25,40,0.00,40.00,8,-174,0,0.00
2013-3-26,49,23,32,41,-43,-100,99,32,40,0.00,40.00,107,-311,0,0.00
2013-3-27,52,27,30,47,-23,-100,99,52,59,0.00,40.00,90,-533,0,0.00
2013-3-28,50,31,32,43,-8,-100,99,64,63,0.00,40.00,10,-664,0,0.00
2013-3-29,54,34,-30,49,3,-100,99,71,63,0.00,40.00,2,-838,0,0.00
2013-3-30,64,35,30,46,0,-100,99,66,39,0.00,40.00,4,-771,0,0.00
2013-3-31,47,29,22,43,-21,-100,99,55,72,0.00,40.00,28,-635,0,0.00
2013-4-1,50,27,32,47,-11,-100,99,59,67,0.00,40.00,39,-560,0,0.00
2013-4-2,55,32,26,47,-4,-100,99,63,58,0.00,40.00,4,-800,0,0.00
2013-4-3,58,38,29,50,14,-100,99,76,57,0.00,40.00,3,-892,0,0.00
2013-4-4,51,24,37,47,-27,-100,99,47,67,0.00,40.00,11,-366,0,0.00
2013-4-5,52,23,33,40,-35,-100,99,38,53,0.00,40.00,9,-327,0,0.00
2013-4-6,52,16,7,41,-60,-100,85,21,52,0.00,40.00,36,-182,0,0.00
2013-4-7,54,15,34,39,-58,-100,99,23,43,0.00,40.00,188,-63,0,0.00
2013-4-8,47,22,-1,47,-36,-100,99,43,48,0.00,40.00,27,-561,0,1.71
2013-4-9,53,24,27,26,-40,-100,86,29,26,0.00,40.00,34,-600,0,0.00
2013-4-10,64,38,32,55,-30,-100,91,33,39,0.00,40.00,163,-672,0,0.00
2013-4-11,57,37,42,47,-3,-100,91,49,51,0.00,40.00,86,-554,0,0.00
2013-4-12,61,36,30,46,3,-100,99,60,42,0.00,40.00,153,-712,0,0.00
2013-4-13,57,26,40,43,-34,-100,99,34,41,0.00,40.00,219,-344,0,0.00
2013-4-14,52,19,11,40,-41,-100,99,34,51,0.00,40.00,139,-273,0,0.00
2013-4-15,42,15,-5,36,-51,-100,99,32,51,0.00,40.00,195,-208,0,0.00
2013-4-16,47,23,-5,40,-18,-100,99,59,55,0.00,40.00,3,-820,0,0.00
2013-4-17,48,27,20,26,-17,-100,99,44,30,0.00,40.00,3,-805,0,0.00
2013-4-18,56,28,-6,48,-57,-100,67,19,40,0.00,40.00,27,-715,0,0.00
2013-4-19,57,28,16,44,-49,-100,94,28,53,0.00,40.00,125,-586,0,0.00
2013-4-20,60,35,9,46,10,-100,99,64,41,0.00,40.00,12,-722,0,0.00
2013-4-21,64,36,30,51,6,-100,99,63,46,0.00,40.00,5,-716,0,0.00
2013-4-22,65,35,34,52,0,-100,99,58,31,0.00,40.00,4,-627,0,0.00
2013-4-23,57,27,34,37,-31,-100,67,23,28,0.00,40.00,4,-518,0,0.00
2013-4-24,64,40,36,34,-10,-100,86,25,17,0.00,40.00,4,-668,0,0.00
2013-4-25,66,36,-21,46,2,-100,78,45,27,0.00,40.00,4,-779,0,0.00
2013-4-26,68,40,31,64,12,-100,99,60,26,0.00,40.00,3,-796,0,0.00
2013-4-27,71,44,36,54,17,-100,99,68,32,0.00,40.00,3,-777,0,0.00
2013-4-28,73,44,33,53,13,-100,99,62,28,0.00,40.00,4,-836,0,0.00
2013-4-29,67,33,37,56,-4,-100,99,60,53,0.00,40.00,8,-629,0,0.00
2013-4-30,64,40,40,50,5,-100,99,48,23,0.00,40.00,4,-597,0,0.00
2013-5-1,63,32,10,16,-36,-100,25,12,12,0.00,40.00,5,-506,0,0.00
2013-5-2,66,43,31,44,0,-100,81,35,19,0.00,40.00,4,-715,0,0.00
2013-5-3,70,40,35,52,0,-100,99,49,19,0.00,40.00,4,-765,0,0.00
2013-5-4,64,40,40,39,-1,-100,68,37,30,0.00,40.00,3,-700,0,0.00
2013-5-5,57,40,39,49,6,-100,99,63,55,0.00,40.00,3,-741,0,0.00
2013-5-6,44,37,33,44,25,-100,99,89,99,0.00,40.00,8,-833,0,0.00
2013-5-7,49,37,35,47,11,-100,99,79,96,0.00,40.00,48,-862,0,0.00
2013-5-8,58,42,38,50,10,-100,99,71,59,0.00,40.00,4,-864,0,0.00
2013-5-9,66,41,36,54,22,-100,99,77,53,0.00,40.00,4,-792,0,0.00
2013-5-10,72,46,38,57,22,-100,99,71,42,0.00,40.00,3,-840,0,0.00
2013-5-11,74,41,40,62,12,-100,99,67,40,0.00,40.00,4,-753,0,0.00
2013-5-12,74,42,10,56,-5,-100,99,54,34,0.00,40.00,7,-652,0,0.00
2013-5-13,71,38,41,52,-8,-100,99,48,41,0.00,40.00,83,-613,0,0.00
2013-5-14,65,43,40,55,10,-100,99,63,45,0.00,40.00,159,-742,0,0.00
2013-5-15,65,28,37,46,-20,-100,99,48,37,0.00,40.00,9,-510,0,0.00
2013-5-16,53,26,41,49,-27,-100,99,46,60,0.00,40.00,10,-351,0,0.00
2013-5-17,57,28,11,43,-17,-100,99,51,35,0.00,40.00,193,-391,0,0.00
2013-5-18,62,30,28,47,-22,-100,99,43,27,0.00,40.00,11,-580,0,0.00
2013-5-19,62,40,34,46,1,-100,99,53,8,0.00,40.00,4,-770,0,0.00
2013-5-20,64,44,41,49,6,-100,87,41,37,0.00,40.00,5,-671,0,0.00
2013-5-21,62,27,40,46,-44,-100,99,23,29,0.00,40.00,243,-299,0,0.00
2013-5-22,54,21,16,54,-50,-100,74,18,30,0.00,40.00,210,-276,0,0.00
2013-5-23,54,29,16,37,-5,-100,99,51,35,0.00,40.00,171,-578,0,0.00
2013-5-24,73,26,27,54,-23,-100,99,40,24,0.00,40.00,7,-480,0,0.00
2013-5-25,61,28,21,45,-27,-100,87,34,30,0.00,40.00,126,-530,0,0.00
2013-5-26,60,23,35,44,-35,-100,96,36,44,0.00,40.00,8,-441,0,0.00
2013-5-27,57,29,31,48,-14,-100,99,54,44,0.00,40.00,143,-499,0,0.00
2013-5-28,60,24,43,50,-43,-100,99,33,57,0.00,40.00,174,-333,0,0.00
2013-5-29,63,27,43,51,-28,-100,99,39,53,0.00,40.00,36,-326,0,0.00
2013-5-30,51,36,33,48,5,-100,99,75,98,0.00,40.00,2,-839,0,0.00
2013-5-31,74,42,37,45,-13,-100,99,28,21,0.00,40.00,5,-617,0,0.00
2013-6-1,71,41,40,54,-4,-100,82,42,37,0.00,40.00,4,-687,0,0.00
2013-6-2,74,40,42,58,-2,-100,99,53,35,0.00,40.00,7,-642,0,0.00
2013-6-3,73,46,47,56,1,-100,99,39,30,0.00,40.00,4,-625,0,0.00
2013-6-4,75,47,44,71,16,-100,98,57,36,0.00,40.00,5,-671,0,0.00
2013-6-5,79,50,44,62,21,-100,99,60,29,0.00,40.00,5,-754,0,0.00
2013-6-6,80,46,47,68,15,-100,99,59,29,0.00,40.00,12,-662,0,0.00
2013-6-7,81,53,46,66,24,-100,99,62,36,0.00,40.00,2,-708,0,0.00
2013-6-8,87,51,49,64,9,-100,98,45,27,0.00,40.00,5,-719,0,0.00
2013-6-9,73,49,52,66,12,-100,99,53,41,0.00,40.00,4,-687,0,0.00
2013-6-10,68,40,51,60,-12,-100,99,48,47,0.00,40.00,49,-633,0,0.00
2013-6-11,70,22,53,51,-57,-100,60,15,32,0.00,40.00,9,-217,0,0.00
2013-6-12,69,36,48,44,-63,-100,71,24,34,0.00,40.00,112,-251,0,0.00
2013-6-13,65,34,40,38,-53,-100,64,19,19,0.00,40.00,179,-299,0,0.00
2013-6-14,66,48,39,50,-19,-100,59,38,33,0.00,40.00,32,-598,0,0.00
2013-6-15,73,42,38,53,-24,-100,82,43,26,0.00,40.00,4,-620,0,0.00
2013-6-16,71,40,36,54,-45,-100,99,41,30,0.00,40.00,64,-519,0,0.00
2013-6-17,70,37,38,57,-38,-100,99,46,31,0.00,40.00,10,-356,0,0.00
2013-6-18,65,20,44,44,-69,-100,62,16,35,0.00,40.00,225,-140,0,0.00
2013-6-19,61,32,40,40,-44,-100,69,26,27,0.00,40.00,64,-236,0,0.00
2013-6-20,62,37,32,41,-10,-100,99,65,35,0.00,40.00,3,-803,0,0.00
2013-6-22,74,37,39,43,-71,-100,82,33,36,0.00,40.00,3,-234,0,0.00
2013-6-23,63,32,40,44,-48,-100,90,36,47,0.00,40.00,137,-349,0,0.00
2013-6-24,54,32,48,52,-51,-100,99,51,62,0.00,40.00,159,-245,0,0.00
2013-6-25,60,29,49,56,-43,-100,99,46,98,0.00,40.00,92,-381,0,0.00
2013-6-26,73,40,45,59,-46,-100,99,53,55,0.00,40.00,7,-428,0,0.00
2013-6-27,82,46,47,59,-10,-100,99,67,46,0.00,40.00,20,-720,0,0.00
2013-6-28,75,51,50,60,7,-100,99,75,58,0.00,40.00,27,-846,0,0.00
2013-6-29,88,52,53,57,-21,-100,99,62,35,0.00,40.00,28,-670,0,0.00
2013-6-30,79,48,52,68,-15,-100,99,73,62,0.00,40.00,5,-699,0,0.00
2013-7-1,79,60,57,57,-31,-100,94,53,48,0.00,40.00,10,-619,0,0.00
2013-7-2,79,52,59,62,-20,-100,86,47,5,0.00,40.00,22,-622,0,0.00
2013-7-3,81,48,53,59,-46,-100,99,60,53,0.00,40.00,2,-674,0,0.00
2013-7-4,80,51,55,67,-22,-100,99,60,59,0.00,40.00,5,-731,0,0.00
2013-7-5,83,43,53,60,-37,-100,99,35,24,0.00,40.00,83,-393,0,0.00
2013-7-6,79,40,48,44,-36,-100,68,32,34,0.00,40.00,159,-478,0,0.00
2013-7-7,79,34,51,46,-62,-100,84,27,37,0.00,40.00,33,-355,0,0.00
2013-7-8,81,35,49,43,-48,-100,65,25,39,0.00,40.00,6,-331,0,0.00
2013-7-9,79,48,49,49,-20,-100,80,41,32,0.00,40.00,3,-678,0,0.00
2013-7-10,79,42,45,45,-33,-100,85,40,34,0.00,40.00,8,-564,0,0.00
2013-7-11,76,39,54,47,-55,-100,65,25,34,0.00,40.00,53,-406,0,0.00
2013-7-12,77,40,43,45,-70,-100,84,31,31,0.00,40.00,99,-538,0,0.00
2013-7-13,80,45,41,57,-28,-100,73,40,27,0.00,40.00,2,-579,0,0.00
2013-7-14,80,56,46,51,-2,-100,90,54,31,0.00,40.00,3,-904,0,0.00
2013-7-15,81,52,48,51,-8,-100,84,56,52,0.00,40.00,1,-866,0,0.00
2013-7-16,78,50,51,49,-18,-100,75,51,38,0.00,40.00,14,-649,0,0.00
2013-7-17,79,44,40,48,-7,-100,80,51,33,0.00,40.00,2,-749,0,0.00
2013-7-18,85,54,47,54,-20,-100,92,60,51,0.00,40.00,1,-829,0,0.00
2013-7-19,89,53,49,50,-2,-100,96,60,54,0.00,40.00,1,-871,0,0.00
2013-7-20,83,58,52,55,-20,-100,79,47,33,0.00,40.00,1,-765,0,0.00
2013-7-21,86,49,56,53,-35,-100,94,50,51,0.00,40.00,2,-605,0,0.00
2013-7-25,76,45,53,-100,-100,-100,99,33,68,0.00,40.00,2,-544,0,0.00
2013-7-26,81,45,52,-100,-100,-100,99,26,60,0.00,40.00,4,-515,0,0.00
2013-7-27,83,44,53,-100,-100,-100,89,17,32,0.00,40.00,49,-262,0,0.00
2013-7-28,79,28,47,-100,-100,-100,91,28,35,0.00,40.00,5,-48,0,0.00
2013-7-29,78,32,49,-100,-100,-100,48,11,41,0.00,40.00,7,-202,0,0.00
2013-7-30,79,34,50,-100,-100,-100,89,28,32,0.00,40.00,5,-217,0,0.00
2013-7-31,76,33,52,47,-76,-100,87,24,45,0.00,40.00,6,-180,0,0.00
2013-8-1,71,36,47,43,-24,-100,74,33,30,0.00,40.00,7,-440,0,0.00
2013-8-2,76,39,37,36,-12,-100,84,48,21,0.00,40.00,6,-671,0,0.00
2013-8-3,80,45,44,-100,-100,-100,94,20,33,0.00,40.00,47,-155,0,0.00
2013-8-4,82,44,45,-100,-100,-100,92,21,32,0.00,40.00,5,-413,0,0.00
2013-8-5,81,43,45,-100,-100,-100,78,19,30,0.00,40.00,3,-460,0,0.00
2013-8-6,71,39,46,-100,-100,-100,83,22,43,0.00,40.00,25,-341,0,0.00
2013-8-7,73,24,56,-100,-100,-100,66,12,37,0.00,40.00,7,-171,0,0.00
2013-8-8,70,20,49,-100,-100,-100,82,5,45,0.00,40.00,5,-238,0,0.00
2013-8-9,72,27,47,-100,-100,-100,85,19,38,0.00,40.00,7,-180,0,0.00
2013-8-10,71,27,54,-100,-100,-100,71,20,30,0.00,40.00,5,-33,0,0.00
2013-8-11,76,40,43,-100,-100,-100,75,24,30,0.00,40.00,7,-344,0,0.00
2013-8-12,75,26,45,44,-58,-100,73,18,41,0.00,40.00,7,-384,0,0.00
2013-8-13,55,28,42,43,-26,-100,78,38,27,0.00,40.00,4,-580,0,0.00
2013-8-14,71,33,44,40,-35,-100,80,32,42,0.00,40.00,3,-688,0,0.00
2013-8-15,64,24,44,39,-38,-100,67,29,32,0.00,40.00,140,-475,0,0.00
2013-8-16,78,28,46,39,-37,-100,51,23,22,0.00,40.00,6,-381,0,0.00
2013-8-17,83,32,49,50,-25,-100,76,35,57,0.00,40.00,2,-582,0,0.00
2013-8-18,71,24,49,48,-43,-100,78,30,32,0.00,40.00,40,-396,0,0.00
2013-8-19,77,56,58,63,-18,-100,81,46,47,0.00,40.00,2,-847,0,0.00
2013-8-20,83,44,53,64,-24,-100,99,52,39,0.00,40.00,11,-691,0,0.00
2013-8-21,70,46,56,64,1,-100,99,55,64,0.00,40.00,1,-621,0,0.00
2013-8-22,74,34,51,55,-24,-100,99,51,42,0.00,40.00,8,-513,0,0.00
2013-8-23,73,29,43,47,-32,-100,94,41,47,0.00,40.00,6,-508,0,0.00
2013-8-24,70,28,42,46,-50,-100,87,34,37,0.00,40.00,6,-459,0,0.00
2013-8-25,62,30,46,47,-39,-100,85,33,51,0.00,40.00,164,-472,0,0.00
2013-8-26,74,33,44,49,-41,-100,91,41,43,0.00,40.00,6,-472,0,0.00
2013-8-27,72,39,45,45,-59,-100,87,44,45,0.00,40.00,1,-806,0,0.00
2013-8-28,73,22,54,49,-89,-100,82,22,53,0.00,40.00,6,-318,0,0.00
2013-8-29,75,22,49,49,-58,-100,91,22,50,0.00,40.00,6,-318,0,0.00
2013-8-30,78,33,48,57,-44,-100,81,36,38,0.00,40.00,6,-468,0,0.00
2013-8-31,82,53,49,53,-4,-100,71,48,30,0.00,40.00,3,-891,0,0.00
2013-9-1,69,48,53,54,-12,-100,74,40,52,0.00,40.00,5,-656,0,0.00
2013-9-2,69,29,58,58,-46,-100,96,30,62,0.00,40.00,10,-414,0,0.00
2013-9-3,74,39,53,58,-4,-100,99,54,54,0.00,40.00,6,-621,0,0.00
2013-9-4,78,41,50,54,-25,-100,99,50,55,0.00,40.00,6,-555,0,0.00
2013-9-5,72,18,50,50,-68,-100,91,27,48,0.00,40.00,108,-222,0,0.00
2013-9-6,78,39,47,51,-60,-100,88,35,33,0.00,40.00,2,-413,0,0.00
2013-9-7,76,34,45,46,-15,-100,83,48,35,0.00,40.00,4,-633,0,1.76
2013-9-8,82,38,44,60,-13,-100,90,52,30,0.00,40.00,2,-640,0,0.00
2013-9-9,77,36,45,41,-24,-100,74,39,37,0.00,40.00,3,-642,0,0.00
2013-9-10,77,46,47,43,-34,-100,70,37,42,0.00,40.00,3,-586,0,0.00
2013-9-11,74,47,46,49,2,-100,89,57,56,0.00,40.00,172,-753,0,0.00
2013-9-12,75,50,47,56,-41,-100,99,67,44,0.00,40.00,1,-868,0,0.00
2013-9-13,74,51,47,64,13,-100,99,81,72,0.00,40.00,1,-854,0,0.00
2013-9-14,74,41,47,54,-6,-100,99,71,72,0.00,40.00,3,-766,0,0.00
2013-9-15,63,21,49,52,-52,-100,99,34,49,0.00,40.00,94,-378,0,0.00
2013-9-16,75,14,49,49,-72,-100,72,14,52,0.00,40.00,7,-188,0,0.00
2013-9-17,65,12,42,43,-81,-100,73,13,33,0.00,40.00,26,-129,0,0.00
2013-9-18,55,39,34,35,-9,-100,93,55,43,0.00,40.00,1,-845,0,0.00
2013-9-19,74,38,40,52,-40,-100,68,38,41,0.00,40.00,3,-741,0,0.00
2013-9-20,69,19,41,34,-59,-100,65,20,32,0.00,40.00,11,-338,0,0.00
2013-9-21,52,8,36,47,-80,-100,99,14,47,0.00,40.00,16,-65,0,0.00
2013-9-22,59,24,35,43,-28,-100,99,56,54,0.00,40.00,97,-440,0,0.00
2013-9-23,63,39,33,47,-1,-100,99,70,39,0.00,40.00,3,-848,0,0.00
2013-9-24,61,10,44,43,-82,-100,73,7,27,0.00,40.00,58,-124,0,0.00
2013-9-25,46,11,33,38,-78,-100,99,16,53,0.00,40.00,156,-157,0,0.00
2013-9-26,50,28,30,33,-21,-100,99,61,57,0.00,40.00,3,-610,0,0.00
2013-9-27,57,30,30,31,-22,-100,99,50,40,0.00,40.00,3,-682,0,0.00
2013-9-28,67,22,34,46,-42,-100,98,38,41,0.00,40.00,19,-453,0,0.00
2013-9-29,60,3,52,-100,-100,-100,58,4,47,0.00,40.00,13,-3,0,0.00
2013-9-30,53,4,51,40,-92,-100,66,5,51,0.00,40.00,11,7,0,0.00
2013-10-1,61,32,47,45,-23,-100,80,41,71,0.00,40.00,16,-536,0,0.00
2013-10-2,58,17,35,43,-64,-100,85,19,39,0.00,40.00,48,-350,0,0.00
2013-10-3,52,29,34,28,-25,-100,66,31,30,0.00,40.00,3,-470,0,0.00
2013-10-4,56,20,32,25,-58,-100,67,19,27,0.00,40.00,21,-318,0,0.00
2013-10-5,65,28,34,25,-38,-100,56,22,19,0.00,40.00,3,-584,0,0.00
2013-10-6,60,30,30,29,-9,-100,78,51,51,0.00,40.00,2,-793,0,0.00
2013-10-7,63,21,34,28,-54,-100,76,31,28,0.00,40.00,9,-471,0,0.00
2013-10-8,53,20,32,33,-55,-100,63,18,29,0.00,40.00,7,-420,0,0.00
2013-10-9,44,31,34,39,-19,-100,99,57,51,0.00,40.00,7,-654,0,0.00
2013-10-10,57,32,31,40,7,-100,99,73,48,0.00,40.00,6,-745,0,0.00
2013-10-11,61,28,28,38,-35,-100,99,60,34,0.00,40.00,4,-717,0,0.00
2013-10-12,59,20,29,37,-35,-100,99,49,37,0.00,40.00,144,-458,0,0.00
2013-10-13,55,34,35,40,0,-100,99,67,51,0.00,40.00,3,-736,0,0.00
2013-10-14,57,28,28,37,-34,-100,99,54,42,0.00,40.00,4,-632,0,0.00
2013-10-15,56,27,33,33,-18,-100,87,41,33,0.00,40.00,23,-580,0,0.00
2013-10-16,59,32,24,35,-45,-100,91,35,31,0.00,40.00,2,-755,0,0.00
2013-10-17,60,36,30,33,-6,-100,99,56,27,0.00,40.00,5,-860,0,0.00
2013-10-18,63,33,32,41,-23,-100,80,45,38,0.00,40.00,2,-678,0,0.00
2013-10-19,63,32,30,39,0,-100,99,58,42,0.00,40.00,2,-839,0,0.00
2013-10-20,64,32,30,46,-11,-100,87,48,35,0.00,40.00,2,-806,0,0.00
2013-10-21,66,40,34,30,-5,-100,72,38,23,0.00,40.00,4,-871,0,0.00
2013-10-22,64,39,32,45,-4,-100,78,51,34,0.00,40.00,2,-854,0,0.00
2013-10-23,68,38,32,30,12,-100,77,57,24,0.00,40.00,2,-934,0,0.00
2013-10-24,45,31,33,28,-17,-100,69,44,50,0.00,40.00,2,-810,0,0.00
2013-10-25,60,41,31,42,-29,-100,79,42,44,0.00,40.00,2,-870,0,0.00
2013-10-26,63,33,32,35,-2,-100,72,50,45,0.00,40.00,5,-836,0,0.00
2013-10-27,60,12,32,27,-67,-100,78,17,58,0.00,40.00,149,-286,0,0.00
2013-10-28,35,12,29,35,-61,-100,99,37,97,0.00,40.00,94,-280,0,0.00
2013-10-29,37,15,31,36,-80,-100,99,33,87,0.00,40.00,10,-347,0,0.00
2013-10-30,52,32,22,50,-4,-100,99,70,52,0.00,40.00,2,-916,0,0.00
2013-10-31,61,28,27,38,3,-100,99,73,42,0.00,40.00,56,-781,0,0.00
2013-11-1,52,27,30,41,-56,-100,99,43,66,0.00,40.00,1,-666,0,0.00
2013-11-2,52,12,31,34,-64,-100,99,22,44,0.00,40.00,58,-274,0,0.00
2013-11-3,48,23,37,37,-58,-100,74,25,53,0.00,40.00,117,-479,0,0.00
2013-11-4,42,16,42,-100,-100,-100,0,0,100,0.00,40.00,1,-374,0,0.00
2013-11-5,56,29,29,25,-32,-100,84,39,32,0.00,40.00,14,-698,0,0.00
2013-11-6,55,27,28,38,-12,-100,99,65,52,0.00,40.00,3,-773,0,0.00
2013-11-7,48,5,35,33,-86,-100,91,8,35,0.00,40.00,10,-73,0,0.00
2013-11-8,50,8,35,33,-81,-100,74,11,31,0.00,40.00,80,-93,0,0.00
2013-11-9,59,28,31,35,-21,-100,91,61,37,0.00,40.00,2,-651,0,0.00
2013-11-10,44,23,29,33,-30,-100,81,44,45,0.00,40.00,3,-599,0,0.00
2013-11-11,56,34,30,34,-11,-100,62,41,37,0.00,40.00,2,-838,0,0.00
2013-11-12,54,32,36,37,-27,-100,79,33,38,0.00,40.00,26,-513,0,0.00
2013-11-13,63,30,31,42,-14,-100,99,53,34,0.00,40.00,4,-674,0,0.00
2013-11-14,52,13,28,32,-66,-100,99,31,45,0.00,40.00,107,-298,0,0.00
2013-11-15,48,21,33,35,-38,-100,99,38,54,0.00,40.00,8,-442,0,0.00
2013-11-16,41,4,33,36,-90,-100,95,16,52,0.00,40.00,89,-34,0,0.00
2013-11-17,53,25,26,36,-22,-100,99,57,51,0.00,40.00,2,-666,0,0.00
2013-11-18,50,14,28,38,-62,-100,99,41,60,0.00,40.00,205,-234,0,0.00
2013-11-19,46,6,37,42,-87,-100,99,13,83,0.00,40.00,121,-22,0,0.00
2013-11-20,42,13,33,42,-50,-100,99,41,99,0.00,40.00,9,-263,0,0.00
2013-11-21,35,15,22,35,-47,-100,99,47,99,0.00,40.00,5,-286,0,0.00
2013-11-22,33,9,22,19,-66,-100,82,25,35,0.00,40.00,43,-166,0,0.00
2013-11-23,42,16,27,14,-51,-100,49,21,31,0.00,40.00,45,-277,0,0.00
2013-11-24,51,21,27,21,-61,-100,79,19,25,0.00,40.00,3,-443,0,0.00
2013-11-25,49,23,23,27,-25,-100,92,46,30,0.00,40.00,2,-646,0,0.00
2013-11-26,52,31,26,34,-4,-100,94,66,50,0.00,40.00,1,-877,0,0.00
2013-11-27,52,33,29,32,-6,-100,98,64,42,0.00,40.00,1,-877,0,0.00
2013-11-28,51,35,28,33,-16,-100,99,57,46,0.00,40.00,2,-804,0,0.00
2013-11-29,54,27,26,32,-8,-100,99,70,39,0.00,40.00,5,-779,0,0.00
2013-11-30,50,28,24,39,5,-100,99,77,45,0.00,40.00,3,-770,0,0.00
2013-12-1,52,25,25,43,-45,-100,99,40,66,0.00,40.00,28,-732,0,0.00
2013-12-2,48,4,28,27,-93,-100,87,6,44,0.00,40.00,17,-47,0,0.00
2013-12-3,41,8,15,40,-78,-100,99,21,83,0.00,40.00,239,-194,0,0.00
2013-12-4,26,9,12,15,-65,-100,90,33,52,0.00,40.00,1,-562,0,0.00
2013-12-5,17,8,11,12,-82,-100,95,15,89,0.00,40.00,3,-612,0,0.00
2013-12-6,27,6,21,0,-97,-100,46,3,25,0.00,40.00,12,-107,0,0.00
2013-12-7,23,3,16,20,-99,-100,99,9,99,0.00,40.00,184,-88,0,0.00
2013-12-8,29,11,7,1,-85,-100,87,20,48,0.00,40.00,1,-938,0,0.00
2013-12-9,40,18,12,11,-65,-100,76,23,35,0.00,40.00,2,-702,0,0.00
2013-12-10,45,18,11,29,-82,-100,53,8,52,0.00,40.00,0,-848,0,0.00
2013-12-11,37,22,22,16,-58,-100,71,25,53,0.00,40.00,1,-848,0,0.00
2013-12-12,44,18,18,21,-59,-100,99,34,59,0.00,40.00,9,-551,0,0.00
2013-12-13,48,20,19,26,-34,-100,81,38,39,0.00,40.00,7,-607,0,0.00
2013-12-14,49,25,19,29,-23,-100,99,63,47,0.00,40.00,2,-693,0,0.00
2013-12-15,50,16,21,30,-35,-100,99,57,65,0.00,40.00,2,-527,0,0.00
2013-12-16,50,25,23,40,-29,-100,99,67,22,0.00,40.00,12,-637,0,0.00
2013-12-17,45,27,25,41,9,-100,99,85,85,0.00,40.00,1,-773,0,0.00
2013-12-18,48,12,28,36,-66,-100,99,37,52,0.00,40.00,14,-300,0,0.00
2013-12-19,34,17,28,32,-81,-100,99,27,65,0.00,40.00,7,-394,0,0.00
2013-12-20,43,15,27,29,-62,-100,99,14,14,0.00,40.00,4,-178,0,0.00
2013-12-21,41,19,28,36,-63,-100,99,53,54,0.00,40.00,21,-455,0,0.00
2013-12-22,50,16,24,34,-62,-100,99,30,56,0.00,40.00,2,-476,0,0.00
2013-12-23,47,23,25,41,-9,-100,99,74,78,0.00,40.00,5,-665,0,0.00
2013-12-24,51,25,25,35,-23,-100,99,74,50,0.00,40.00,2,-726,0,0.00
2013-12-25,48,23,22,35,-15,-100,99,68,55,0.00,40.00,1,-840,0,0.00
2013-12-26,37,20,22,35,-16,-100,94,69,58,0.00,40.00,2,-687,0,0.00
2013-12-27,44,27,22,36,-8,-100,99,75,66,0.00,40.00,7,-657,0,0.00
2013-12-28,48,17,22,22,-56,-100,81,29,30,0.00,40.00,23,-472,0,0.00
2013-12-29,47,27,23,28,-27,-100,89,45,30,0.00,40.00,8,-749,0,0.00
2013-12-30,40,22,23,32,-20,-100,93,58,66,0.00,40.00,1,-683,0,0.00
2013-12-31,54,29,29,26,-22,-100,77,45,47,0.00,40.00,2,-676,0,0.00
2014-1-1,51,28,24,29,-2,-100,94,69,39,0.00,40.00,2,-772,0,0.00
2014-1-2,48,25,25,41,-1,-100,99,80,85,0.00,40.00,2,-777,0,0.00